createdAt,value
2023-03-03T00:01:43.677Z,4.89
2023-03-03T00:04:44.807Z,4.92
2023-03-03T00:07:22.347Z,4.92
2023-03-03T00:09:58.702Z,4.94
2023-03-03T00:12:29.947Z,4.94
2023-03-03T00:14:57.942Z,5.00
2023-03-03T00:17:27.275Z,5.01
2023-03-03T00:19:55.270Z,4.99
2023-03-03T00:22:39.049Z,4.98
2023-03-03T00:25:28.901Z,4.92
2023-03-03T00:28:19.954Z,4.96
2023-03-03T00:30:59.366Z,4.92
2023-03-03T00:33:34.750Z,4.92
2023-03-03T00:36:36.852Z,4.96
2023-03-03T00:39:30.246Z,4.92
2023-03-03T00:42:00.750Z,4.91
2023-03-03T00:44:56.264Z,4.91
2023-03-03T00:47:23.736Z,4.91
2023-03-03T00:49:54.729Z,4.94
2023-03-03T00:52:29.223Z,4.91
2023-03-03T00:55:26.095Z,4.95
2023-03-03T00:57:53.421Z,4.93
2023-03-03T01:00:23.039Z,4.92
2023-03-03T01:02:50.699Z,4.91
2023-03-03T01:05:18.935Z,4.91
2023-03-03T01:10:54.455Z,4.84
2023-03-03T01:13:24.419Z,4.87
2023-03-03T01:15:51.698Z,4.88
2023-03-03T01:18:18.957Z,4.92
2023-03-03T01:20:50.511Z,4.90
2023-03-03T01:23:17.305Z,4.91
2023-03-03T01:25:44.814Z,4.89
2023-03-03T01:28:11.748Z,4.91
2023-03-03T01:31:07.174Z,4.90
2023-03-03T01:33:36.596Z,4.89
2023-03-03T01:36:30.792Z,4.90
2023-03-03T01:38:57.609Z,4.84
2023-03-03T01:41:33.231Z,4.82
2023-03-03T01:47:25.191Z,4.88
2023-03-03T01:50:08.852Z,4.79
2023-03-03T01:52:59.663Z,4.80
2023-03-03T01:55:47.659Z,4.77
2023-03-03T01:58:19.866Z,4.75
2023-03-03T02:01:01.189Z,4.74
2023-03-03T02:03:28.179Z,4.73
2023-03-03T02:06:02.358Z,4.73
2023-03-03T02:08:46.577Z,4.71
2023-03-03T02:11:15.102Z,4.72
2023-03-03T02:13:42.494Z,4.70
2023-03-03T02:17:00.145Z,4.74
2023-03-03T02:20:02.061Z,4.67
2023-03-03T02:22:53.871Z,4.66
2023-03-03T02:28:18.045Z,4.66
2023-03-03T02:33:40.958Z,4.64
2023-03-03T02:36:11.226Z,4.66
2023-03-03T02:38:47.995Z,4.65
2023-03-03T02:41:30.054Z,4.66
2023-03-03T02:44:32.172Z,4.66
2023-03-03T02:46:59.828Z,4.70
2023-03-03T02:49:32.952Z,4.64
2023-03-03T02:52:01.790Z,4.60
2023-03-03T02:54:37.277Z,4.47
2023-03-03T02:57:14.154Z,4.46
2023-03-03T02:59:50.519Z,4.47
2023-03-03T03:02:37.330Z,4.50
2023-03-03T03:05:04.478Z,4.50
2023-03-03T03:07:34.548Z,4.49
2023-03-03T03:10:02.229Z,4.49
2023-03-03T03:15:34.757Z,4.49
2023-03-03T03:18:01.736Z,4.50
2023-03-03T03:20:36.515Z,4.52
2023-03-03T03:23:07.021Z,4.58
2023-03-03T03:26:16.064Z,4.60
2023-03-03T03:28:43.278Z,4.63
2023-03-03T03:31:10.862Z,4.61
2023-03-03T03:33:56.236Z,4.63
2023-03-03T03:37:28.916Z,4.64
2023-03-03T03:39:59.520Z,4.70
2023-03-03T03:42:29.486Z,4.73
2023-03-03T03:44:56.228Z,4.73
2023-03-03T03:47:30.122Z,4.69
2023-03-03T03:49:57.874Z,4.73
2023-03-03T03:52:24.686Z,4.73
2023-03-03T03:54:52.293Z,4.69
2023-03-03T03:57:19.213Z,4.69
2023-03-03T03:59:51.638Z,4.71
2023-03-03T04:02:18.714Z,4.70
2023-03-03T04:04:46.883Z,4.64
2023-03-03T04:07:14.249Z,4.60
2023-03-03T04:09:41.167Z,4.65
2023-03-03T04:12:17.967Z,4.59
2023-03-03T04:14:45.563Z,4.63
2023-03-03T04:17:25.048Z,4.65
2023-03-03T04:19:53.989Z,4.62
2023-03-03T04:22:26.866Z,4.59
2023-03-03T04:24:55.015Z,4.63
2023-03-03T04:27:21.776Z,4.62
2023-03-03T04:29:54.481Z,4.60
2023-03-03T04:32:21.379Z,4.66
2023-03-03T04:35:05.617Z,4.64
2023-03-03T04:37:35.582Z,4.63
2023-03-03T04:40:03.121Z,4.59
2023-03-03T04:42:30.232Z,4.58
2023-03-03T04:45:06.719Z,4.62
2023-03-03T04:47:38.825Z,4.62
2023-03-03T04:50:12.891Z,4.62
2023-03-03T04:53:42.327Z,4.58
2023-03-03T04:56:15.068Z,4.57
2023-03-03T04:59:46.825Z,4.55
2023-03-03T05:02:58.856Z,4.58
2023-03-03T05:05:27.301Z,4.56
2023-03-03T05:07:55.190Z,4.54
2023-03-03T05:10:34.994Z,4.54
2023-03-03T05:13:02.880Z,4.50
2023-03-03T05:15:30.268Z,4.54
2023-03-03T05:18:04.320Z,4.51
2023-03-03T05:20:32.432Z,4.58
2023-03-03T05:23:26.657Z,4.62
2023-03-03T05:25:56.121Z,4.60
2023-03-03T05:28:23.705Z,4.60
2023-03-03T05:31:01.565Z,4.60
2023-03-03T05:33:34.245Z,4.64
2023-03-03T05:36:11.165Z,4.65
2023-03-03T05:39:44.998Z,4.66
2023-03-03T05:41:56.503Z,4.64
2023-03-03T05:44:23.287Z,4.64
2023-03-03T05:49:43.052Z,4.73
2023-03-03T05:52:10.044Z,4.75
2023-03-03T05:54:40.276Z,4.80
2023-03-03T05:57:20.850Z,4.78
2023-03-03T06:00:01.616Z,4.77
2023-03-03T06:02:38.624Z,4.72
2023-03-03T06:08:08.080Z,4.73
2023-03-03T06:10:44.404Z,4.78
2023-03-03T06:13:17.552Z,4.85
2023-03-03T06:15:48.533Z,4.92
2023-03-03T06:18:18.728Z,4.91
2023-03-03T06:20:50.289Z,4.89
2023-03-03T06:23:17.524Z,4.87
2023-03-03T06:25:44.650Z,4.92
2023-03-03T06:28:15.259Z,4.92
2023-03-03T06:30:42.072Z,4.96
2023-03-03T06:33:09.022Z,5.03
2023-03-03T06:38:44.419Z,5.07
2023-03-03T06:41:11.506Z,5.06
2023-03-03T06:43:39.262Z,5.05
2023-03-03T06:46:09.876Z,5.07
2023-03-03T06:48:37.031Z,4.99
2023-03-03T06:51:22.943Z,4.99
2023-03-03T06:53:55.954Z,4.95
2023-03-03T06:56:26.652Z,4.89
2023-03-03T06:59:02.899Z,4.94
2023-03-03T07:01:38.191Z,5.03
2023-03-03T07:07:01.083Z,5.11
2023-03-03T07:09:29.956Z,5.09
2023-03-03T07:12:11.194Z,5.23
2023-03-03T07:14:58.064Z,5.29
2023-03-03T07:17:29.114Z,5.32
2023-03-03T07:19:56.960Z,5.31
2023-03-03T07:22:30.368Z,5.30
2023-03-03T07:25:19.019Z,5.37
2023-03-03T07:27:46.092Z,5.40
2023-03-03T07:30:30.145Z,5.43
2023-03-03T07:32:59.660Z,5.47
2023-03-03T07:35:41.477Z,5.54
2023-03-03T07:38:28.842Z,5.61
2023-03-03T07:40:57.241Z,5.67
2023-03-03T07:43:30.926Z,5.63
2023-03-03T07:46:04.253Z,5.65
2023-03-03T07:48:37.233Z,5.72
2023-03-03T07:51:13.962Z,5.72
2023-03-03T07:53:49.170Z,5.66
2023-03-03T07:56:29.946Z,5.67
2023-03-03T07:59:16.976Z,5.65
2023-03-03T08:01:50.453Z,5.68
2023-03-03T08:04:37.934Z,5.67
2023-03-03T08:07:19.030Z,5.67
2023-03-03T08:09:48.863Z,5.68
2023-03-03T08:12:20.459Z,5.73
2023-03-03T08:15:00.728Z,5.73
2023-03-03T08:17:56.246Z,5.57
2023-03-03T08:23:44.974Z,5.66
2023-03-03T08:26:17.337Z,5.52
2023-03-03T08:31:42.192Z,5.68
2023-03-03T08:34:22.312Z,5.70
2023-03-03T08:36:50.376Z,5.75
2023-03-03T08:39:24.225Z,5.74
2023-03-03T08:41:51.679Z,5.82
2023-03-03T08:44:23.582Z,5.85
2023-03-03T08:46:51.028Z,5.80
2023-03-03T08:49:18.438Z,5.73
2023-03-03T08:51:46.614Z,5.72
2023-03-03T08:54:13.774Z,5.70
2023-03-03T08:56:40.988Z,5.75
2023-03-03T08:59:08.202Z,5.75
2023-03-03T09:01:35.427Z,5.74
2023-03-03T09:04:02.474Z,5.70
2023-03-03T09:06:29.630Z,5.64
2023-03-03T09:08:56.426Z,5.62
2023-03-03T09:11:28.867Z,5.62
2023-03-03T09:14:07.637Z,5.62
2023-03-03T09:16:39.868Z,5.70
2023-03-03T09:19:37.615Z,5.82
2023-03-03T09:22:22.478Z,5.90
2023-03-03T09:25:32.639Z,6.01
2023-03-03T09:31:02.136Z,6.35
2023-03-03T09:33:43.588Z,6.43
2023-03-03T09:36:39.733Z,6.61
2023-03-03T09:39:23.500Z,6.73
2023-03-03T09:42:05.646Z,6.75
2023-03-03T09:45:23.225Z,6.82
2023-03-03T09:48:13.015Z,6.80
2023-03-03T09:50:48.873Z,6.77
2023-03-03T09:53:53.031Z,6.95
2023-03-03T09:56:59.843Z,7.00
2023-03-03T10:00:16.428Z,6.95
2023-03-03T10:03:04.893Z,7.08
2023-03-03T10:05:54.954Z,7.03
2023-03-03T10:08:43.129Z,7.03
2023-03-03T10:11:34.970Z,7.08
2023-03-03T10:14:37.935Z,7.12
2023-03-03T10:20:13.916Z,7.05
2023-03-03T10:23:24.567Z,6.98
2023-03-03T10:26:10.068Z,6.89
2023-03-03T10:28:43.400Z,6.91
2023-03-03T10:31:38.472Z,6.86
2023-03-03T10:34:18.105Z,6.86
2023-03-03T10:37:20.784Z,6.74
2023-03-03T10:39:57.677Z,6.50
2023-03-03T10:42:53.716Z,6.38
2023-03-03T10:45:56.174Z,6.22
2023-03-03T10:48:59.049Z,6.17
2023-03-03T10:52:16.824Z,6.25
2023-03-03T10:58:42.561Z,6.23
2023-03-03T11:01:27.363Z,6.34
2023-03-03T11:04:43.820Z,6.32
2023-03-03T11:07:48.464Z,6.24
2023-03-03T11:10:18.972Z,6.28
2023-03-03T11:13:06.268Z,6.36
2023-03-03T11:15:56.464Z,6.35
2023-03-03T11:19:00.664Z,6.40
2023-03-03T11:22:09.634Z,6.39
2023-03-03T11:25:18.294Z,6.39
2023-03-03T11:27:54.270Z,6.42
2023-03-03T11:31:08.049Z,6.32
2023-03-03T11:33:59.432Z,6.24
2023-03-03T11:36:58.606Z,6.37
2023-03-03T11:39:28.187Z,6.42
2023-03-03T11:42:46.659Z,6.42
2023-03-03T11:45:27.554Z,6.30
2023-03-03T11:48:17.804Z,6.37
2023-03-03T11:54:39.853Z,6.19
2023-03-03T11:58:13.583Z,6.00
2023-03-03T12:01:26.596Z,5.79
2023-03-03T12:04:35.300Z,5.74
2023-03-03T12:07:40.434Z,5.70
2023-03-03T12:11:02.254Z,5.70
2023-03-03T12:14:33.842Z,5.71
2023-03-03T12:17:22.974Z,5.70
2023-03-03T12:20:43.356Z,5.77
2023-03-03T12:27:16.411Z,5.89
2023-03-03T12:30:05.370Z,5.84
2023-03-03T12:33:00.629Z,5.85
2023-03-03T12:35:50.949Z,5.90
2023-03-03T12:38:46.270Z,5.87
2023-03-03T12:41:43.515Z,5.92
2023-03-03T12:44:21.598Z,5.92
2023-03-03T12:47:33.971Z,6.00
2023-03-03T12:50:10.372Z,6.09
2023-03-03T12:52:51.105Z,6.15
2023-03-03T12:55:50.674Z,6.22
2023-03-03T12:59:21.738Z,6.15
2023-03-03T13:02:39.909Z,6.13
2023-03-03T13:05:22.238Z,6.12
2023-03-03T13:08:42.940Z,6.22
2023-03-03T13:11:36.118Z,6.32
2023-03-03T13:14:41.215Z,6.23
2023-03-03T13:20:32.286Z,6.40
2023-03-03T13:23:36.765Z,6.49
2023-03-03T13:26:23.001Z,6.56
2023-03-03T13:29:05.509Z,6.57
2023-03-03T13:32:10.444Z,6.57
2023-03-03T13:35:20.103Z,6.58
2023-03-03T13:37:56.565Z,6.59
2023-03-03T13:40:31.598Z,6.56
2023-03-03T13:46:05.563Z,6.64
2023-03-03T13:49:22.140Z,6.69
2023-03-03T13:52:01.952Z,6.64
2023-03-03T13:55:13.588Z,6.62
2023-03-03T13:58:24.699Z,6.63
2023-03-03T14:01:18.295Z,6.62
2023-03-03T14:04:00.640Z,6.56
2023-03-03T14:06:29.547Z,6.50
2023-03-03T14:09:15.741Z,6.53
2023-03-03T14:12:12.073Z,6.57
2023-03-03T14:15:25.633Z,6.55
2023-03-03T14:21:19.543Z,6.56
2023-03-03T14:24:16.043Z,6.49
2023-03-03T14:26:57.894Z,6.59
2023-03-03T14:30:01.104Z,6.64
2023-03-03T14:32:44.512Z,6.52
2023-03-03T14:35:29.356Z,6.53
2023-03-03T14:38:19.785Z,6.51
2023-03-03T14:40:49.623Z,6.60
2023-03-03T14:44:09.877Z,6.59
2023-03-03T14:47:02.580Z,6.52
2023-03-03T14:49:39.418Z,6.43
2023-03-03T14:52:21.182Z,6.38
2023-03-03T14:55:11.988Z,6.35
2023-03-03T14:57:48.160Z,6.40
2023-03-03T15:00:25.155Z,6.28
2023-03-03T15:03:16.034Z,6.25
2023-03-03T15:05:59.625Z,6.26
2023-03-03T15:08:38.279Z,6.24
2023-03-03T15:12:03.219Z,6.21
2023-03-03T15:18:51.215Z,6.15
2023-03-03T15:22:01.069Z,6.10
2023-03-03T15:25:11.020Z,6.13
2023-03-03T15:28:28.621Z,6.12
2023-03-03T15:32:13.088Z,6.09
2023-03-03T15:35:08.361Z,6.11
2023-03-03T15:38:30.631Z,6.10
2023-03-03T15:41:29.283Z,6.12
2023-03-03T15:44:27.019Z,6.13
2023-03-03T15:47:18.227Z,6.06
2023-03-03T15:50:13.048Z,6.13
2023-03-03T15:56:26.644Z,6.00
2023-03-03T15:59:27.688Z,5.97
2023-03-03T16:02:25.669Z,5.95
2023-03-03T16:05:20.034Z,5.97
2023-03-03T16:09:30.067Z,5.96
2023-03-03T16:12:19.819Z,5.87
2023-03-03T16:16:18.302Z,5.82
2023-03-03T16:21:47.484Z,5.77
2023-03-03T16:24:44.955Z,5.77
2023-03-03T16:27:25.658Z,5.78
2023-03-03T16:30:15.899Z,5.78
2023-03-03T16:33:01.939Z,5.76
2023-03-03T16:35:39.683Z,5.74
2023-03-03T16:38:16.301Z,5.71
2023-03-03T16:40:59.725Z,5.67
2023-03-03T16:43:46.036Z,5.67
2023-03-03T16:46:45.247Z,5.66
2023-03-03T16:49:48.421Z,5.68
2023-03-03T16:52:30.593Z,5.68
2023-03-03T16:55:11.842Z,5.68
2023-03-03T16:58:17.763Z,5.72
2023-03-03T17:01:16.955Z,5.70
2023-03-03T17:04:06.331Z,5.66
2023-03-03T17:10:28.124Z,5.70
2023-03-03T17:13:35.940Z,5.65
2023-03-03T17:16:16.561Z,5.66
2023-03-03T17:19:40.464Z,5.68
2023-03-03T17:22:35.039Z,5.68
2023-03-03T17:26:23.596Z,5.64
2023-03-03T17:32:31.179Z,5.60
2023-03-03T17:35:40.568Z,5.60
2023-03-03T17:45:19.797Z,5.53
2023-03-03T17:48:20.869Z,5.53
2023-03-03T17:51:21.672Z,5.54
2023-03-03T17:54:04.513Z,5.56
2023-03-03T17:56:58.016Z,5.55
2023-03-03T17:59:59.757Z,5.60
2023-03-03T18:03:07.799Z,5.56
2023-03-03T18:05:57.789Z,5.56
2023-03-03T18:16:42.126Z,5.52
2023-03-03T18:22:53.748Z,5.53
2023-03-03T18:30:39.145Z,5.53
2023-03-03T18:33:27.097Z,5.53
2023-03-03T18:36:25.180Z,5.54
2023-03-03T18:39:21.395Z,5.50
2023-03-03T18:42:19.005Z,5.57
2023-03-03T18:44:48.328Z,5.55
2023-03-03T18:47:18.788Z,5.47
2023-03-03T18:50:15.489Z,5.48
2023-03-03T18:53:19.228Z,5.51
2023-03-03T18:58:43.562Z,5.51
2023-03-03T19:02:01.313Z,5.50
2023-03-03T19:04:42.351Z,5.53
2023-03-03T19:07:34.343Z,5.52
2023-03-03T19:10:11.526Z,5.47
2023-03-03T19:16:01.737Z,5.48
2023-03-03T19:48:44.694Z,5.33
2023-03-03T19:51:47.873Z,5.39
2023-03-03T19:54:40.644Z,5.39
2023-03-03T19:57:37.416Z,5.36
2023-03-03T20:04:32.634Z,5.41
2023-03-03T20:07:06.249Z,5.34
2023-03-03T20:10:12.200Z,5.35
2023-03-03T20:13:41.156Z,5.35
2023-03-03T20:16:31.108Z,5.33
2023-03-03T20:19:31.747Z,5.33
2023-03-03T20:22:24.601Z,5.35
2023-03-03T20:25:20.981Z,5.33
2023-03-03T20:28:28.686Z,5.31
2023-03-03T20:34:48.103Z,5.32
2023-03-03T20:37:50.299Z,5.30
2023-03-03T20:40:39.552Z,5.34
2023-03-03T20:43:41.254Z,5.37
2023-03-03T20:47:00.376Z,5.41
2023-03-03T20:50:18.031Z,5.39
2023-03-03T20:53:08.995Z,5.43
2023-03-03T20:56:05.279Z,5.47
2023-03-03T20:58:57.961Z,5.42
2023-03-03T21:02:00.128Z,5.46
2023-03-03T21:05:21.790Z,5.40
2023-03-03T21:08:10.253Z,5.34
2023-03-03T21:10:51.700Z,5.43
2023-03-03T21:13:57.144Z,5.35
2023-03-03T21:19:25.340Z,5.36
2023-03-03T21:22:18.692Z,5.36
2023-03-03T21:25:04.568Z,5.30
2023-03-03T21:27:39.638Z,5.41
2023-03-03T21:30:41.035Z,5.39
2023-03-03T21:33:07.941Z,5.34
2023-03-03T21:36:52.348Z,5.38
2023-03-03T21:47:00.083Z,5.30
2023-03-03T21:49:35.744Z,5.30
2023-03-03T21:52:03.477Z,5.25
2023-03-03T21:54:59.648Z,5.27
2023-03-03T21:57:30.088Z,5.25
2023-03-03T22:00:00.770Z,5.27
2023-03-03T22:02:58.706Z,5.23
2023-03-03T22:05:29.628Z,5.25
2023-03-03T22:08:14.644Z,5.30
2023-03-03T22:11:03.127Z,5.26
2023-03-03T23:25:16.166Z,5.13
2023-03-03T23:30:29.124Z,5.16
2023-03-03T23:32:55.967Z,5.08
2023-03-03T23:35:22.786Z,5.18
2023-03-03T23:37:52.613Z,5.18
2023-03-03T23:40:19.489Z,5.27
2023-03-03T23:42:46.603Z,5.22
2023-03-03T23:45:14.383Z,5.27
2023-03-03T23:47:41.707Z,5.22
2023-03-03T23:50:10.973Z,5.32
2023-03-03T23:52:37.795Z,5.29
2023-03-03T23:55:05.337Z,5.22
2023-03-03T23:57:32.244Z,5.21
2023-03-03T23:59:59.130Z,5.30
